Time;durP1;ratioP1;P1;durP2;ratioP2;P2;SDS_P1;SDS_P2;PMS_P1;PMS_P2;Temp;Humidity;BMP_temperature;BMP_pressure;BME280_temperature;BME280_humidity;BME280_pressure;Samples;Min_cycle;Max_cycle;Signal;HPM_P1;HPM_P2
2021/10/08 00:01:33;;;;;;;18.90;9.00;;;;;;;5.32;80.31;97739.39;115497;1198;28294;-81
2021/10/08 00:04:04;;;;;;;16.80;9.20;;;;;;;5.32;80.31;97741.48;115527;1199;28914;-83
2021/10/08 00:06:35;;;;;;;18.50;9.20;;;;;;;5.32;80.62;97735.70;115531;1199;24953;-82
2021/10/08 00:09:04;;;;;;;;;;;;;;;5.35;80.57;97738.08;115592;1199;26791;-81
2021/10/08 00:11:35;;;;;;;15.30;8.30;;;;;;;5.41;80.36;97736.36;115545;1199;27873;-80
2021/10/08 00:14:06;;;;;;;19.60;8.80;;;;;;;5.37;80.09;97735.88;115381;1200;30610;-81
2021/10/08 00:16:37;;;;;;;15.30;8.40;;;;;;;5.26;80.46;97733.43;115411;1193;29506;-81
2021/10/08 00:19:07;;;;;;;15.80;8.40;;;;;;;5.19;80.78;97733.00;115459;1184;25437;-79
2021/10/08 00:21:38;;;;;;;17.50;9.50;;;;;;;5.11;81.02;97732.07;115455;1199;26635;-80
2021/10/08 00:24:09;;;;;;;17.10;9.10;;;;;;;5.05;81.11;97733.88;115500;1199;29541;-79
2021/10/08 00:26:40;;;;;;;15.10;7.90;;;;;;;5.05;80.87;97736.31;115446;1199;29097;-80
2021/10/08 00:29:12;;;;;;;15.00;8.20;;;;;;;5.11;80.86;97741.09;115412;1199;29902;-80
2021/10/08 00:31:42;;;;;;;18.70;9.40;;;;;;;5.21;80.98;97740.63;115465;1199;41053;-80
2021/10/08 00:34:11;;;;;;;;;;;;;;;5.26;80.84;97741.39;115539;1199;27303;-80
2021/10/08 00:36:42;;;;;;;13.50;7.70;;;;;;;5.34;80.95;97743.30;115470;1186;31239;-80
2021/10/08 00:39:13;;;;;;;13.40;7.90;;;;;;;5.45;80.98;97742.10;115494;1199;26248;-81
2021/10/08 00:41:44;;;;;;;15.50;8.40;;;;;;;5.51;80.71;97743.52;115494;1199;44184;-81
2021/10/08 00:44:16;;;;;;;14.70;8.30;;;;;;;5.50;80.31;97747.20;115485;1199;26699;-81
2021/10/08 00:46:46;;;;;;;18.30;9.00;;;;;;;5.42;79.95;97748.64;115443;1199;26291;-81
2021/10/08 00:49:17;;;;;;;16.10;9.10;;;;;;;5.19;79.61;97742.10;115437;1199;38077;-81
2021/10/08 00:51:46;;;;;;;;;;;;;;;4.96;79.74;97746.02;115462;1199;29363;-80
2021/10/08 00:54:19;;;;;;;17.10;8.50;;;;;;;4.83;80.19;97751.25;115491;1199;29896;-82
2021/10/08 00:56:49;;;;;;;14.30;9.00;;;;;;;4.73;80.87;97754.13;115516;1199;28647;-80
2021/10/08 00:59:20;;;;;;;22.10;9.20;;;;;;;4.71;81.28;97750.92;115467;1199;36286;-80
2021/10/08 01:01:52;;;;;;;20.50;8.90;;;;;;;4.77;81.45;97748.17;115446;1199;29990;-81
2021/10/08 01:04:25;;;;;;;19.30;8.80;;;;;;;4.91;81.43;97746.30;115448;1184;71178;-82
2021/10/08 01:06:58;;;;;;;19.20;8.80;;;;;;;5.05;81.44;97742.91;115296;1200;78096;-80
2021/10/08 01:09:29;;;;;;;17.80;8.60;;;;;;;5.11;81.00;97745.73;115433;1199;48773;-81
2021/10/08 01:12:00;;;;;;;16.80;8.80;;;;;;;5.02;80.44;97746.52;115438;1199;31743;-80
2021/10/08 01:14:30;;;;;;;18.00;8.30;;;;;;;4.84;80.27;97744.24;115473;1199;31320;-81
2021/10/08 01:17:21;;;;;;;18.60;10.60;;;;;;;4.73;80.36;97745.25;115463;1199;32150;-82
2021/10/08 01:19:52;;;;;;;16.60;9.00;;;;;;;4.80;80.80;97744.06;115464;1199;28150;-81
2021/10/08 01:22:21;;;;;;;;;;;;;;;4.94;81.14;97749.51;115510;1199;27634;-81
2021/10/08 01:24:52;;;;;;;14.80;7.80;;;;;;;4.96;80.71;97753.25;115482;1199;27857;-80
2021/10/08 01:27:23;;;;;;;13.00;7.40;;;;;;;4.85;80.42;97760.70;115483;1199;26144;-81
2021/10/08 01:29:57;;;;;;;16.30;7.80;;;;;;;4.90;80.31;97760.93;115497;1199;26491;-81
2021/10/08 01:32:30;;;;;;;16.70;8.70;;;;;;;4.95;80.28;97758.60;115520;1199;28678;-80
2021/10/08 01:35:01;;;;;;;15.70;8.30;;;;;;;5.00;80.39;97759.84;115516;1192;27602;-81
2021/10/08 01:37:32;;;;;;;14.90;8.20;;;;;;;5.08;80.54;97764.44;115513;1199;26504;-80
2021/10/08 01:40:03;;;;;;;13.30;7.70;;;;;;;5.14;80.36;97765.44;115517;1199;26437;-81
2021/10/08 01:42:34;;;;;;;13.70;7.90;;;;;;;5.18;80.63;97765.04;115536;1199;26233;-81
2021/10/08 01:45:08;;;;;;;16.70;8.90;;;;;;;5.19;80.32;97765.23;115377;1200;29373;-82
2021/10/08 01:47:40;;;;;;;17.40;8.30;;;;;;;5.17;80.12;97771.35;115384;1199;47614;-80
2021/10/08 01:50:11;;;;;;;16.50;7.50;;;;;;;5.08;79.93;97767.52;115415;1199;27026;-81
2021/10/08 01:52:42;;;;;;;16.40;8.10;;;;;;;4.90;79.73;97764.13;115517;1199;26690;-81
2021/10/08 01:55:13;;;;;;;17.50;9.40;;;;;;;4.70;80.00;97761.35;115502;1199;29011;-82
2021/10/08 01:57:44;;;;;;;18.40;8.70;;;;;;;4.62;80.55;97761.11;115469;1199;27274;-80
2021/10/08 02:00:16;;;;;;;20.50;8.70;;;;;;;4.58;80.95;97760.73;115472;1192;28662;-81
2021/10/08 02:02:46;;;;;;;14.70;8.70;;;;;;;4.58;81.36;97765.15;115524;1199;29785;-81
2021/10/08 02:05:17;;;;;;;13.50;8.50;;;;;;;4.54;81.38;97764.29;115495;1199;27426;-81
2021/10/08 02:07:48;;;;;;;17.50;8.60;;;;;;;4.52;81.45;97769.40;115467;1192;29025;-80
2021/10/08 02:10:19;;;;;;;17.70;8.50;;;;;;;4.56;81.31;97772.75;115465;1199;29656;-81
2021/10/08 02:12:50;;;;;;;17.60;8.30;;;;;;;4.62;81.34;97772.63;115469;1192;36990;-81
2021/10/08 02:15:20;;;;;;;16.00;9.00;;;;;;;4.65;81.18;97771.53;115483;1199;28178;-80
2021/10/08 02:17:51;;;;;;;18.50;9.10;;;;;;;4.73;81.58;97773.38;115481;1192;25897;-82
2021/10/08 02:20:22;;;;;;;17.70;8.60;;;;;;;4.80;81.50;97775.97;115489;1199;30094;-81
2021/10/08 02:22:53;;;;;;;17.20;9.10;;;;;;;4.85;81.68;97781.59;115317;1200;28802;-81
2021/10/08 02:25:24;;;;;;;17.20;8.60;;;;;;;4.91;81.26;97782.63;115390;1199;33523;-81
2021/10/08 02:27:53;;;;;;;;;;;;;;;4.95;81.21;97782.86;115446;1199;24762;-80
2021/10/08 02:30:24;;;;;;;15.80;7.90;;;;;;;4.93;80.93;97785.51;115362;1199;28040;-80
2021/10/08 02:32:54;;;;;;;14.70;8.20;;;;;;;4.94;80.77;97786.21;115298;1192;31358;-80
2021/10/08 02:35:25;;;;;;;18.50;8.50;;;;;;;4.98;80.68;97781.82;115445;1199;28385;-81
2021/10/08 02:37:56;;;;;;;13.70;8.60;;;;;;;4.98;80.64;97782.23;115436;1199;23488;-81
2021/10/08 02:40:27;;;;;;;14.00;8.10;;;;;;;4.88;80.30;97778.94;115419;1199;80270;-81
2021/10/08 02:42:56;;;;;;;;;;;;;;;4.81;80.39;97779.04;115498;1199;29001;-82
2021/10/08 02:45:27;;;;;;;16.70;8.00;;;;;;;4.69;80.21;97782.29;115466;1199;28560;-81
2021/10/08 02:47:58;;;;;;;21.70;8.20;;;;;;;4.60;80.39;97786.58;115416;1199;27777;-81
2021/10/08 02:50:29;;;;;;;15.00;7.60;;;;;;;4.69;80.63;97789.89;115508;1199;44201;-81
2021/10/08 02:53:00;;;;;;;14.30;8.10;;;;;;;4.75;80.31;97789.44;115471;1199;31235;-82
2021/10/08 02:55:31;;;;;;;13.90;7.10;;;;;;;4.66;79.72;97787.80;115471;1199;33419;-81
2021/10/08 02:58:02;;;;;;;15.30;7.70;;;;;;;4.65;79.72;97792.58;115509;1199;62779;-81
2021/10/08 03:00:34;;;;;;;11.40;7.30;;;;;;;4.54;79.50;97788.67;115578;1199;27172;-81
2021/10/08 03:03:05;;;;;;;14.10;8.00;;;;;;;4.28;79.51;97791.95;115564;1199;33605;-81
2021/10/08 03:05:36;;;;;;;15.50;8.80;;;;;;;4.09;79.94;97791.20;115509;1199;30033;-81
2021/10/08 03:08:07;;;;;;;14.10;7.80;;;;;;;3.95;80.38;97798.02;115578;1198;49327;-81
2021/10/08 03:10:39;;;;;;;17.90;8.00;;;;;;;3.86;80.75;97796.79;115403;1199;51672;-80
2021/10/08 03:13:10;;;;;;;12.10;7.70;;;;;;;3.87;80.93;97799.36;115365;1200;31478;-80
2021/10/08 03:15:41;;;;;;;17.20;8.40;;;;;;;3.89;81.38;97803.80;115343;1200;38007;-80
2021/10/08 03:18:12;;;;;;;18.30;8.90;;;;;;;3.91;81.81;97803.42;115324;1199;37508;-81
2021/10/08 03:20:42;;;;;;;13.80;8.30;;;;;;;3.90;82.13;97807.67;115448;1199;29999;-81
2021/10/08 03:23:13;;;;;;;16.00;8.40;;;;;;;3.89;82.51;97804.64;115430;1199;29812;-80
2021/10/08 03:25:42;;;;;;;;;;;;;;;3.88;82.71;97806.71;115356;1200;43171;-81
2021/10/08 03:28:14;;;;;;;11.70;7.80;;;;;;;3.89;82.48;97808.20;115267;1200;32304;-80
2021/10/08 03:30:44;;;;;;;13.00;7.00;;;;;;;3.89;82.34;97808.04;115359;1193;28780;-81
2021/10/08 03:33:15;;;;;;;14.80;7.60;;;;;;;3.88;81.88;97808.45;115488;1199;25456;-82
2021/10/08 03:35:46;;;;;;;16.00;7.30;;;;;;;3.80;81.92;97806.65;115408;1195;28813;-81
2021/10/08 03:38:18;;;;;;;18.00;8.30;;;;;;;3.75;82.30;97804.80;115510;1199;25668;-81
2021/10/08 03:40:58;;;;;;;15.70;8.10;;;;;;;3.76;82.59;97808.59;115502;1199;30920;-81
2021/10/08 03:43:30;;;;;;;11.50;5.20;;;;;;;3.76;82.38;97815.00;115526;1199;25766;-80
2021/10/08 03:46:04;;;;;;;14.50;8.10;;;;;;;3.82;82.23;97813.35;115476;1199;26166;-81
2021/10/08 03:51:25;;;;;;;13.90;7.90;;;;;;;3.87;82.34;97812.23;115451;1199;28185;-80
2021/10/08 03:53:56;;;;;;;15.80;8.20;;;;;;;3.91;82.26;97810.01;115497;1199;36624;-80
2021/10/08 03:56:28;;;;;;;14.50;9.10;;;;;;;3.96;82.35;97810.92;115440;1199;28550;-81
2021/10/08 03:58:59;;;;;;;15.40;7.50;;;;;;;4.05;82.34;97806.69;115492;1199;28748;-81
2021/10/08 04:01:30;;;;;;;14.10;7.70;;;;;;;4.10;82.21;97810.94;115467;1199;38494;-82
2021/10/08 04:04:04;;;;;;;12.00;7.00;;;;;;;4.20;82.34;97809.75;115457;1199;29418;-81
2021/10/08 04:06:36;;;;;;;15.50;7.40;;;;;;;4.24;81.94;97808.39;115599;1199;23593;-81
2021/10/08 04:09:08;;;;;;;15.80;7.80;;;;;;;4.23;81.67;97812.90;115560;1199;29337;-81
2021/10/08 04:11:39;;;;;;;18.00;7.80;;;;;;;4.26;81.60;97812.25;115489;1199;35726;-81
2021/10/08 04:14:10;;;;;;;14.60;7.70;;;;;;;4.32;81.65;97816.54;115424;1199;25037;-81
2021/10/08 04:16:41;;;;;;;16.40;8.00;;;;;;;4.36;81.50;97818.38;115433;1183;28868;-80
2021/10/08 04:19:12;;;;;;;11.30;7.00;;;;;;;4.43;81.57;97820.65;115518;1199;30153;-80
2021/10/08 04:21:41;;;;;;;;;;;;;;;4.39;80.66;97823.34;115518;1199;37205;-81
2021/10/08 04:24:11;;;;;;;11.30;6.80;;;;;;;4.25;80.55;97824.92;115504;1199;28711;-79
2021/10/08 04:26:40;;;;;;;;;;;;;;;4.17;80.56;97831.33;115310;1200;32022;-80
2021/10/08 04:29:13;;;;;;;14.90;7.80;;;;;;;3.99;80.67;97828.55;115408;1199;28743;-81
2021/10/08 04:31:44;;;;;;;19.00;8.60;;;;;;;3.83;81.03;97833.45;115451;1199;26632;-80
2021/10/08 04:34:15;;;;;;;14.50;8.10;;;;;;;3.79;81.52;97835.73;115455;1199;33869;-80
2021/10/08 04:36:46;;;;;;;14.00;7.80;;;;;;;3.84;81.71;97835.98;115497;1199;25835;-80
2021/10/08 04:39:17;;;;;;;13.10;7.00;;;;;;;3.96;82.01;97835.87;115482;1199;27729;-80
2021/10/08 04:41:48;;;;;;;15.30;8.20;;;;;;;4.07;81.86;97844.27;115466;1199;29758;-82
2021/10/08 04:44:19;;;;;;;10.40;6.80;;;;;;;3.99;81.43;97847.48;115406;1199;33677;-81
2021/10/08 04:46:50;;;;;;;11.50;7.60;;;;;;;3.86;80.93;97852.48;115459;1199;27480;-80
2021/10/08 04:49:21;;;;;;;14.60;7.50;;;;;;;3.92;81.30;97856.99;115397;1199;32186;-81
2021/10/08 04:51:51;;;;;;;16.70;7.80;;;;;;;3.95;81.07;97856.91;115489;1199;38789;-81
2021/10/08 04:54:23;;;;;;;13.90;7.40;;;;;;;3.80;80.75;97858.75;115397;1199;26329;-81
2021/10/08 04:56:54;;;;;;;15.00;7.20;;;;;;;3.70;80.70;97862.88;115356;1199;36297;-80
2021/10/08 04:59:25;;;;;;;12.30;7.80;;;;;;;3.65;80.83;97866.13;115317;1199;27561;-81
2021/10/08 05:01:56;;;;;;;13.50;6.70;;;;;;;3.71;81.10;97869.25;115390;1199;59132;-81
2021/10/08 05:04:27;;;;;;;12.10;6.60;;;;;;;3.86;81.36;97871.77;115282;1200;29024;-80
2021/10/08 05:06:58;;;;;;;11.40;6.90;;;;;;;4.09;81.33;97873.51;115317;1197;45298;-81
2021/10/08 05:09:29;;;;;;;10.10;6.80;;;;;;;4.32;81.18;97874.10;115391;1199;28498;-81
2021/10/08 05:12:00;;;;;;;17.50;7.70;;;;;;;4.56;80.95;97872.05;115474;1186;27501;-81
2021/10/08 05:14:31;;;;;;;11.00;7.10;;;;;;;4.79;80.93;97873.98;115418;1193;30743;-81
2021/10/08 05:17:02;;;;;;;13.40;7.50;;;;;;;4.93;80.54;97876.81;115487;1199;36982;-81
2021/10/08 05:19:33;;;;;;;14.80;7.50;;;;;;;5.10;80.47;97874.16;115505;1184;34387;-82
2021/10/08 05:22:04;;;;;;;15.50;7.90;;;;;;;5.38;80.29;97879.56;115570;1198;29944;-80
2021/10/08 05:24:35;;;;;;;13.40;7.60;;;;;;;5.70;80.10;97881.86;115549;1199;35960;-81
2021/10/08 05:27:06;;;;;;;15.10;7.90;;;;;;;6.03;79.82;97883.97;115531;1192;27766;-81
2021/10/08 05:29:37;;;;;;;12.10;7.40;;;;;;;6.45;79.39;97884.83;115596;1199;25030;-81
2021/10/08 05:32:09;;;;;;;12.50;6.60;;;;;;;6.86;78.90;97888.34;115444;1199;32420;-80
2021/10/08 05:34:40;;;;;;;11.00;6.90;;;;;;;7.44;79.05;97882.96;115490;1199;28793;-80
2021/10/08 05:37:12;;;;;;;10.60;6.70;;;;;;;8.26;78.95;97881.64;115414;1199;34060;-80
2021/10/08 05:39:44;;;;;;;11.00;6.50;;;;;;;9.06;78.20;97881.88;115419;1199;27082;-81
2021/10/08 05:42:15;;;;;;;10.90;6.10;;;;;;;9.82;77.12;97882.76;115402;1193;24648;-81
2021/10/08 05:44:46;;;;;;;11.00;6.30;;;;;;;10.50;76.01;97888.73;115432;1199;25613;-82
2021/10/08 05:47:17;;;;;;;8.80;6.40;;;;;;;11.17;75.18;97891.38;115451;1199;73198;-82
2021/10/08 05:49:49;;;;;;;9.30;6.50;;;;;;;11.86;73.98;97890.61;115509;1199;28927;-81
2021/10/08 05:52:20;;;;;;;11.10;6.60;;;;;;;12.43;72.83;97885.08;115487;1199;40557;-82
2021/10/08 05:54:51;;;;;;;14.90;7.10;;;;;;;12.76;70.92;97891.02;115486;1199;23181;-81
2021/10/08 05:57:22;;;;;;;12.40;6.50;;;;;;;12.59;68.76;97891.97;115436;1196;27903;-82
2021/10/08 05:59:53;;;;;;;10.30;6.50;;;;;;;12.31;67.73;97891.35;115449;1199;35720;-82
2021/10/08 06:02:23;;;;;;;12.50;7.10;;;;;;;12.26;67.61;97896.05;115505;1196;29111;-81
2021/10/08 06:04:54;;;;;;;10.70;6.60;;;;;;;12.41;67.32;97900.44;115540;1190;26379;-81
2021/10/08 06:07:25;;;;;;;9.80;5.80;;;;;;;12.68;67.53;97904.13;115443;1198;71688;-80
2021/10/08 06:09:56;;;;;;;11.10;6.20;;;;;;;13.05;66.81;97908.16;115070;1200;29896;-81
2021/10/08 06:12:27;;;;;;;8.80;5.80;;;;;;;13.20;66.06;97913.49;115408;1199;27293;-81
2021/10/08 06:14:58;;;;;;;11.60;5.80;;;;;;;13.59;65.36;97910.67;115313;1199;47380;-82
2021/10/08 06:17:28;;;;;;;10.10;5.40;;;;;;;14.11;65.24;97910.41;115493;1199;29837;-81
2021/10/08 06:20:00;;;;;;;13.40;6.20;;;;;;;14.39;63.83;97907.80;115523;1199;28764;-82
2021/10/08 06:22:31;;;;;;;10.90;7.00;;;;;;;14.69;63.31;97904.17;115206;1200;42531;-81
2021/10/08 06:25:02;;;;;;;17.30;7.00;;;;;;;14.90;62.43;97907.34;115431;1199;28871;-81
2021/10/08 06:27:32;;;;;;;14.50;7.70;;;;;;;15.01;61.81;97910.13;115315;1200;38798;-81
2021/10/08 06:30:04;;;;;;;14.90;7.90;;;;;;;15.29;61.27;97914.40;115621;1199;23399;-81
2021/10/08 06:32:34;;;;;;;8.90;6.20;;;;;;;15.17;60.28;97914.20;115584;1199;26790;-81
2021/10/08 06:35:08;;;;;;;10.30;7.00;;;;;;;14.60;59.50;97916.57;115530;1199;25275;-82
2021/10/08 06:37:39;;;;;;;11.60;7.60;;;;;;;14.23;59.68;97917.92;115524;1198;25399;-81
2021/10/08 06:40:11;;;;;;;14.40;8.70;;;;;;;13.79;58.97;97918.80;115448;1199;52587;-81
2021/10/08 06:42:42;;;;;;;13.20;8.30;;;;;;;12.95;58.92;97923.63;115438;1199;31567;-80
2021/10/08 06:45:13;;;;;;;10.80;7.80;;;;;;;12.21;59.64;97927.52;115361;1199;34716;-81
2021/10/08 06:47:43;;;;;;;13.10;8.70;;;;;;;12.03;59.83;97934.66;115457;1199;37362;-80
2021/10/08 06:50:14;;;;;;;14.10;9.50;;;;;;;11.40;59.58;97935.93;115453;1198;29945;-80
2021/10/08 06:52:45;;;;;;;13.30;9.70;;;;;;;10.42;60.36;97932.33;115223;1200;29542;-81
2021/10/08 06:55:15;;;;;;;25.90;10.50;;;;;;;9.66;61.39;97933.94;115412;1199;33203;-80
2021/10/08 06:57:46;;;;;;;24.30;10.10;;;;;;;8.89;62.20;97939.58;115435;1199;28277;-81
2021/10/08 07:00:17;;;;;;;23.70;12.10;;;;;;;8.21;63.20;97941.35;115530;1199;29651;-81
2021/10/08 07:02:53;;;;;;;23.30;11.80;;;;;;;7.77;64.97;97945.57;115455;1198;28792;-81
2021/10/08 07:05:26;;;;;;;18.30;11.30;;;;;;;7.64;66.24;97948.90;115535;1191;28293;-80
2021/10/08 07:07:56;;;;;;;18.00;11.10;;;;;;;7.64;67.43;97948.07;115559;1198;27360;-81
2021/10/08 07:10:27;;;;;;;23.30;11.30;;;;;;;7.59;67.42;97950.95;115525;1199;27595;-81
2021/10/08 07:12:58;;;;;;;21.50;9.70;;;;;;;7.21;67.86;97952.87;115598;1199;24766;-81
2021/10/08 07:15:30;;;;;;;15.20;10.40;;;;;;;7.01;68.73;97957.19;115550;1199;27334;-81
2021/10/08 07:18:01;;;;;;;17.20;10.00;;;;;;;6.97;69.83;97956.38;115512;1192;38933;-80
2021/10/08 07:20:32;;;;;;;23.30;10.40;;;;;;;6.88;69.82;97960.02;115556;1198;32765;-81
2021/10/08 07:23:03;;;;;;;19.60;9.00;;;;;;;6.57;70.02;97957.98;115466;1199;27450;-80
2021/10/08 07:25:34;;;;;;;20.00;9.20;;;;;;;6.35;70.41;97961.64;115295;1200;27082;-81
2021/10/08 07:28:05;;;;;;;28.70;10.20;;;;;;;6.09;71.52;97961.32;115518;1199;28907;-81
2021/10/08 07:30:37;;;;;;;17.40;9.70;;;;;;;5.94;71.98;97961.96;115502;1199;31914;-81
2021/10/08 07:33:07;;;;;;;17.50;10.30;;;;;;;5.84;72.47;97961.73;115613;1199;32742;-81
2021/10/08 07:35:38;;;;;;;23.30;10.30;;;;;;;5.76;73.22;97961.55;115196;1193;28170;-80
2021/10/08 07:38:09;;;;;;;21.20;9.40;;;;;;;5.74;73.90;97959.91;115254;1200;28653;-79
2021/10/08 07:40:40;;;;;;;22.50;10.50;;;;;;;5.72;74.00;97961.83;115217;1200;26568;-80
2021/10/08 07:43:10;;;;;;;31.30;11.10;;;;;;;5.58;74.61;97962.33;115390;1199;29312;-80
2021/10/08 07:45:41;;;;;;;15.70;10.70;;;;;;;5.57;75.27;97964.15;115430;1199;26832;-80
2021/10/08 07:48:12;;;;;;;24.80;11.30;;;;;;;5.61;75.92;97966.59;115364;1200;36726;-82
2021/10/08 07:50:43;;;;;;;19.50;10.80;;;;;;;5.62;76.04;97969.27;115462;1193;44680;-82
2021/10/08 07:53:14;;;;;;;17.50;11.70;;;;;;;5.51;76.02;97972.77;115454;1199;35413;-81
2021/10/08 07:55:45;;;;;;;23.40;11.70;;;;;;;5.50;77.05;97968.02;115448;1192;37195;-81
2021/10/08 07:58:16;;;;;;;18.40;13.10;;;;;;;5.52;77.57;97968.58;115538;1199;30922;-81
2021/10/08 08:00:46;;;;;;;22.30;13.40;;;;;;;5.73;78.09;97967.52;115528;1199;32336;-79
2021/10/08 08:03:17;;;;;;;21.00;12.00;;;;;;;5.81;78.40;97966.77;115521;1191;39984;-80
2021/10/08 08:05:46;;;;;;;;;;;;;;;6.00;78.65;97968.48;115348;1199;29197;-82
2021/10/08 08:08:17;;;;;;;18.90;10.60;;;;;;;6.18;78.71;97971.09;115473;1199;55802;-81
2021/10/08 08:10:48;;;;;;;15.90;11.70;;;;;;;6.07;77.98;97969.96;115515;1199;31735;-81
2021/10/08 08:13:19;;;;;;;24.30;15.20;;;;;;;5.89;77.68;97970.38;115538;1199;28704;-81
2021/10/08 08:15:50;;;;;;;19.20;13.50;;;;;;;5.86;78.52;97982.69;115433;1199;69088;-82
2021/10/08 08:18:21;;;;;;;22.50;14.70;;;;;;;6.01;79.08;97987.23;115559;1198;34628;-82
2021/10/08 08:20:52;;;;;;;22.90;12.40;;;;;;;6.00;78.69;97991.64;115552;1199;30765;-82
2021/10/08 08:23:23;;;;;;;19.30;13.20;;;;;;;5.79;78.13;97999.19;115524;1199;28136;-81
2021/10/08 08:25:55;;;;;;;17.40;11.80;;;;;;;5.61;78.47;97998.91;115529;1199;39872;-80
2021/10/08 08:28:27;;;;;;;22.60;12.80;;;;;;;5.51;78.74;98008.27;115545;1199;34514;-81
2021/10/08 08:30:59;;;;;;;16.90;10.40;;;;;;;5.52;79.05;98011.34;115555;1193;28859;-81
2021/10/08 08:33:30;;;;;;;19.80;13.00;;;;;;;5.43;78.65;98012.80;115564;1199;28836;-80
2021/10/08 08:36:00;;;;;;;19.60;13.10;;;;;;;5.43;79.59;98013.80;115194;1200;36358;-81
2021/10/08 08:38:32;;;;;;;19.70;13.80;;;;;;;5.63;80.04;98008.55;115270;1199;31159;-80
2021/10/08 08:41:03;;;;;;;20.80;13.20;;;;;;;5.83;80.05;98008.27;115455;1198;46994;-81
2021/10/08 08:43:34;;;;;;;21.90;14.20;;;;;;;5.92;80.28;98008.50;115445;1199;33694;-80
2021/10/08 08:46:05;;;;;;;;;;;;;;;6.14;80.25;98002.39;115345;1199;28386;-81
2021/10/08 08:48:36;;;;;;;17.40;13.10;;;;;;;6.35;80.67;98002.20;115583;1194;26621;-82
2021/10/08 08:51:07;;;;;;;22.30;13.70;;;;;;;6.53;80.44;98000.91;115599;1199;26405;-81
2021/10/08 08:53:36;;;;;;;;;;;;;;;6.66;80.02;97997.24;115571;1199;29679;-81
2021/10/08 08:56:07;;;;;;;20.80;13.30;;;;;;;6.68;79.73;97998.48;115529;1199;27350;-80
2021/10/08 08:58:38;;;;;;;23.10;15.40;;;;;;;6.69;79.41;98000.70;115290;1200;25417;-81
2021/10/08 09:01:07;;;;;;;;;;;;;;;6.63;79.40;97996.91;115375;1199;29904;-79
2021/10/08 09:03:38;;;;;;;23.70;13.80;;;;;;;6.49;78.97;98002.23;115623;1199;29298;-81
2021/10/08 09:06:11;;;;;;;28.60;14.90;;;;;;;6.39;79.54;98001.88;115566;1199;27439;-79
2021/10/08 09:08:46;;;;;;;25.90;15.20;;;;;;;6.34;79.35;98002.45;115521;1198;27286;-80
2021/10/08 09:11:17;;;;;;;24.90;15.00;;;;;;;6.25;79.53;98005.30;115604;1199;25041;-81
2021/10/08 09:13:46;;;;;;;;;;;;;;;6.34;80.10;98002.61;115582;1198;28123;-81
2021/10/08 09:16:17;;;;;;;24.70;16.60;;;;;;;6.47;80.59;98005.17;115527;1199;29627;-81
2021/10/08 09:18:51;;;;;;;;;;;;;;;6.68;80.64;98006.42;115552;1198;29887;-80
2021/10/08 09:21:23;;;;;;;31.70;18.70;;;;;;;6.81;80.50;98007.59;115597;1198;28885;-82
2021/10/08 09:23:55;;;;;;;23.50;15.40;;;;;;;6.97;80.56;98006.16;115562;1199;28389;-81
2021/10/08 09:26:27;;;;;;;25.30;17.90;;;;;;;7.09;79.97;98008.16;115579;1199;29059;-81
2021/10/08 09:29:00;;;;;;;27.10;18.20;;;;;;;7.08;79.58;98011.95;115567;1192;31247;-81
2021/10/08 09:31:42;;;;;;;29.40;20.40;;;;;;;7.20;79.92;98014.52;115562;1199;31554;-81
2021/10/08 09:34:15;;;;;;;28.80;19.70;;;;;;;7.24;79.61;98015.66;115593;1199;25927;-80
2021/10/08 09:36:50;;;;;;;34.10;20.20;;;;;;;7.31;79.69;98011.59;115550;1199;29049;-81
2021/10/08 09:39:27;;;;;;;31.90;19.00;;;;;;;7.50;80.71;98013.11;115535;1199;30737;-81
2021/10/08 09:42:01;;;;;;;22.10;16.00;;;;;;;7.86;81.05;98012.33;115541;1199;29466;-81
2021/10/08 09:44:33;;;;;;;29.10;18.10;;;;;;;8.30;81.40;98007.05;115551;1199;29285;-81
2021/10/08 09:47:14;;;;;;;26.60;17.10;;;;;;;8.71;81.15;98004.15;115626;1197;25911;-81
2021/10/08 09:49:47;;;;;;;26.70;16.30;;;;;;;8.99;80.85;98002.52;115578;1199;27973;-81
2021/10/08 09:52:28;;;;;;;23.30;15.80;;;;;;;9.37;81.10;98000.95;115562;1198;28486;-82
2021/10/08 09:55:01;;;;;;;28.00;17.50;;;;;;;9.69;80.26;98001.48;115588;1199;31065;-81
2021/10/08 09:57:58;;;;;;;25.10;16.00;;;;;;;9.89;79.76;97997.58;115276;1199;28432;-82
2021/10/08 10:00:42;;;;;;;25.10;15.60;;;;;;;10.07;79.13;98000.38;115588;1199;27074;-81
2021/10/08 10:03:16;;;;;;;24.40;15.40;;;;;;;10.21;78.50;98002.31;115371;1199;26544;-81
2021/10/08 10:05:47;;;;;;;22.80;15.00;;;;;;;10.25;77.78;97998.19;115396;1199;51799;-82
2021/10/08 10:08:18;;;;;;;22.30;13.60;;;;;;;10.29;77.90;97997.04;115577;1198;29502;-82
2021/10/08 10:10:50;;;;;;;22.80;14.40;;;;;;;10.37;77.50;97994.66;115434;1199;26092;-82
2021/10/08 10:13:22;;;;;;;26.80;15.30;;;;;;;10.47;77.25;97999.54;115510;1199;55435;-84
2021/10/08 10:15:54;;;;;;;21.60;13.20;;;;;;;10.37;76.15;97992.02;115496;1199;50105;-83
2021/10/08 10:18:25;;;;;;;21.10;13.70;;;;;;;10.30;75.72;97992.55;115152;1192;57447;-83
2021/10/08 10:20:57;;;;;;;23.80;13.50;;;;;;;10.35;75.76;97995.70;115513;1199;31279;-83
2021/10/08 10:23:29;;;;;;;23.40;13.50;;;;;;;10.40;75.59;97992.02;115332;1198;42251;-84
2021/10/08 10:26:00;;;;;;;22.30;12.20;;;;;;;10.53;75.35;97995.73;115172;1200;32646;-84
2021/10/08 10:28:34;;;;;;;16.90;11.10;;;;;;;10.53;74.28;97993.99;110195;1196;6425138;-83
2021/10/08 10:31:06;;;;;;;22.80;11.60;;;;;;;10.45;73.87;97991.94;115439;1199;32839;-84
2021/10/08 10:33:39;;;;;;;23.60;13.20;;;;;;;10.53;74.01;97988.95;115654;1199;27532;-83
2021/10/08 10:36:25;;;;;;;19.00;10.90;;;;;;;10.71;73.87;97991.17;115522;1199;38415;-83
2021/10/08 10:39:17;;;;;;;18.00;10.80;;;;;;;10.78;73.01;97989.30;115596;1198;32175;-83
2021/10/08 10:42:13;;;;;;;20.20;11.50;;;;;;;10.86;72.70;97990.62;115576;1193;37040;-84
2021/10/08 10:45:12;;;;;;;15.70;8.90;;;;;;;10.99;72.58;97988.94;115594;1193;40660;-84
2021/10/08 10:47:45;;;;;;;19.30;10.40;;;;;;;11.02;71.95;97992.91;115531;1199;30862;-84
2021/10/08 10:50:25;;;;;;;11.50;7.60;;;;;;;10.95;70.46;97990.31;115543;1198;28468;-82
2021/10/08 10:52:59;;;;;;;14.70;7.60;;;;;;;10.70;66.45;97992.33;115578;1199;30854;-83
2021/10/08 10:55:35;;;;;;;15.40;7.50;;;;;;;10.61;65.75;97989.19;115523;1199;28647;-81
2021/10/08 10:58:17;;;;;;;13.60;6.70;;;;;;;10.60;64.47;97988.48;115645;1199;25363;-82
2021/10/08 11:00:51;;;;;;;14.50;7.00;;;;;;;10.50;61.87;97991.52;115571;1199;26840;-82
2021/10/08 11:03:32;;;;;;;16.80;7.90;;;;;;;10.40;61.32;97989.56;115558;1199;28522;-84
2021/10/08 11:06:19;;;;;;;14.70;8.30;;;;;;;10.49;62.78;97987.48;115517;1199;30247;-82
2021/10/08 11:09:20;;;;;;;16.70;7.70;;;;;;;10.59;62.24;97984.77;115534;1199;50124;-83
2021/10/08 11:12:34;;;;;;;13.70;7.30;;;;;;;10.63;61.97;97989.16;115614;1199;30711;-82
2021/10/08 11:15:35;;;;;;;17.00;7.90;;;;;;;10.66;61.15;97989.09;114917;1202;27382;-82
2021/10/08 11:18:04;;;;;;;;;;;;;;;10.80;61.63;97988.41;115583;1199;34506;-83
2021/10/08 11:20:47;;;;;;;12.90;7.30;;;;;;;10.92;62.12;97986.63;115668;1199;32054;-82
2021/10/08 11:23:32;;;;;;;14.90;6.90;;;;;;;11.14;62.66;97990.19;115566;1198;27981;-81
2021/10/08 11:26:06;;;;;;;14.20;7.50;;;;;;;11.23;61.51;97993.40;115535;1199;32057;-81
2021/10/08 11:28:38;;;;;;;14.50;7.20;;;;;;;11.25;60.85;97994.86;115653;1199;36863;-81
2021/10/08 11:31:11;;;;;;;10.20;5.80;;;;;;;11.26;60.30;97995.53;115532;1199;42471;-78
2021/10/08 11:33:47;;;;;;;15.10;6.70;;;;;;;11.34;59.37;98000.17;115608;1199;34291;-80
2021/10/08 11:36:22;;;;;;;12.30;7.40;;;;;;;11.27;58.45;97994.12;115389;1199;48010;-80
2021/10/08 11:39:08;;;;;;;12.50;6.80;;;;;;;11.23;57.36;97994.91;115349;1199;29753;-81
2021/10/08 11:41:41;;;;;;;12.90;7.50;;;;;;;11.22;57.62;97993.56;115526;1199;32873;-80
2021/10/08 11:44:19;;;;;;;15.90;6.80;;;;;;;11.33;58.11;97994.91;115574;1193;26170;-80
2021/10/08 11:47:11;;;;;;;14.50;6.90;;;;;;;11.33;56.85;97994.80;115571;1199;31400;-81
2021/10/08 11:52:40;;;;;;;12.20;7.40;;;;;;;11.43;57.28;97985.36;115396;1199;30578;-81
2021/10/08 11:55:15;;;;;;;16.20;6.90;;;;;;;11.51;58.21;97986.82;115531;1199;29289;-80